YWLM/NTL METAR and TAF weather

Enter ICAO airport designator
Station Type Date Time Source
YWLM METAR 2020/03/31 07:00 UTC NOAA

YWLM 310700Z 13009KT 9999 FEW028 23/19 Q1015


Station Type Date Time Source
YWLM Decoded METAR 2020/03/31 07:00 UTC NOAA

Station name not available
Mar 31, 2020 - 03:00 AM EDT / 2020.03.31 0700 UTC
Wind: from the SE (130 degrees) at 10 MPH (9 KT):0
Visibility: greater than 7 mile(s):0
Sky conditions: mostly clear
Temperature: 73 F (23 C)
Dew Point: 66 F (19 C)
Relative Humidity: 78%
Pressure (altimeter): 29.97 in. Hg (1015 hPa)
ob: YWLM 310700Z 13009KT 9999 FEW028 23/19 Q1015
cycle: 7

Station Type Date Time Source
YWLM TAF 2020/03/31 06:12 UTC NOAA

TAF
AMD YWLM 310508Z 3106/0106 17012KT 9999 SCT030
FM310800 15005KT 9999 SCT020
FM311200 29005KT 9999 SCT010 BKN020
FM010000 08014KT 9999 SCT020 PROB40 3112/3122 0500 FG BKN002

Example: see airport list